Time;durP1;ratioP1;P1;durP2;ratioP2;P2;SDS_P1;SDS_P2;PMS_P1;PMS_P2;Temp;Humidity;BMP_temperature;BMP_pressure;BME280_temperature;BME280_humidity;BME280_pressure;Samples;Min_cycle;Max_cycle;Signal;HPM_P1;HPM_P2
2021/05/16 00:01:30;;;;;;;6.03;4.67;;;;;;;12.34;74.88;100134.84;1745529;80;21006;-50
2021/05/16 00:03:58;;;;;;;5.30;4.28;;;;;;;12.34;74.89;100134.35;1748810;80;20978;-47
2021/05/16 00:06:26;;;;;;;4.87;3.90;;;;;;;12.34;74.92;100141.52;1688406;83;21942;-52
2021/05/16 00:08:53;;;;;;;8.35;4.30;;;;;;;12.32;74.90;100133.62;1695363;83;21563;-51
2021/05/16 00:11:20;;;;;;;5.25;4.20;;;;;;;12.32;74.86;100132.75;1696556;83;20972;-41
2021/05/16 00:13:48;;;;;;;5.12;4.53;;;;;;;12.29;74.90;100132.98;1695094;83;21942;-43
2021/05/16 00:16:15;;;;;;;6.95;4.28;;;;;;;12.25;75.07;100132.84;1702670;83;21464;-39
2021/05/16 00:18:42;;;;;;;6.97;4.20;;;;;;;12.16;75.43;100134.81;1703851;82;21005;-46
2021/05/16 00:21:09;;;;;;;4.83;3.60;;;;;;;12.08;75.85;100138.03;1697304;83;21016;-42
2021/05/16 00:23:36;;;;;;;5.10;3.87;;;;;;;12.06;76.00;100139.45;1697370;83;20997;-42
2021/05/16 00:26:02;;;;;;;6.05;4.28;;;;;;;12.07;76.00;100141.19;1696552;82;20996;-48
2021/05/16 00:28:29;;;;;;;6.12;4.12;;;;;;;12.06;76.01;100135.45;1699235;83;21000;-52
2021/05/16 00:30:57;;;;;;;7.35;4.10;;;;;;;12.07;76.00;100141.19;1696221;83;21016;-44
2021/05/16 00:33:25;;;;;;;5.17;3.80;;;;;;;12.07;75.90;100144.31;1699426;83;20992;-44
2021/05/16 00:35:51;;;;;;;3.47;2.98;;;;;;;12.07;75.83;100146.98;1694725;82;20979;-49
2021/05/16 00:38:18;;;;;;;3.90;3.15;;;;;;;12.06;75.79;100139.45;1702829;83;21472;-43
2021/05/16 00:40:45;;;;;;;6.05;3.77;;;;;;;12.05;75.69;100135.58;1703461;83;21578;-43
2021/05/16 00:43:12;;;;;;;7.37;4.37;;;;;;;12.04;75.57;100132.02;1699400;82;20984;-47
2021/05/16 00:45:38;;;;;;;6.03;5.47;;;;;;;12.02;75.38;100144.66;1698770;83;21015;-46
2021/05/16 00:48:06;;;;;;;7.28;6.28;;;;;;;11.99;75.24;100146.67;1697981;83;21046;-45
2021/05/16 00:50:39;;;;;;;6.35;4.92;;;;;;;11.99;75.18;100147.53;1701483;83;21007;-48
2021/05/16 00:53:05;;;;;;;5.30;4.65;;;;;;;11.97;75.17;100152.60;1691537;83;21024;-45
2021/05/16 00:55:32;;;;;;;5.78;4.70;;;;;;;11.95;75.14;100157.22;1697972;83;20984;-48
2021/05/16 00:57:59;;;;;;;7.10;5.10;;;;;;;11.92;75.12;100154.28;1697817;83;21031;-46
2021/05/16 01:00:28;;;;;;;5.72;4.47;;;;;;;11.92;75.05;100154.28;1751759;79;21010;-46
2021/05/16 01:02:57;;;;;;;5.58;5.05;;;;;;;11.92;75.03;100148.94;1688229;82;21010;-44
2021/05/16 01:05:24;;;;;;;7.72;4.62;;;;;;;11.89;74.96;100151.34;1728060;81;21014;-43
2021/05/16 01:07:52;;;;;;;5.33;3.98;;;;;;;11.87;74.92;100147.92;1746035;80;21014;-43
2021/05/16 01:10:19;;;;;;;5.97;3.37;;;;;;;11.86;74.98;100146.64;1759673;79;21503;-43
2021/05/16 01:12:49;;;;;;;5.80;4.12;;;;;;;11.85;75.04;100155.14;1727719;82;20982;-47
2021/05/16 01:15:18;;;;;;;6.22;3.55;;;;;;;11.85;75.13;100159.64;1756405;79;21408;-44
2021/05/16 01:17:46;;;;;;;4.05;3.62;;;;;;;11.85;75.21;100155.63;1764000;79;21049;-44
2021/05/16 01:20:21;;;;;;;5.40;4.03;;;;;;;11.85;75.30;100156.97;1760411;79;21057;-45
2021/05/16 01:23:04;;;;;;;4.25;3.08;;;;;;;11.84;75.40;100157.91;1756177;79;20998;-50
2021/05/16 01:25:39;;;;;;;5.87;3.10;;;;;;;11.83;75.43;100161.55;1762326;79;20989;-45
2021/05/16 01:28:06;;;;;;;4.35;3.55;;;;;;;11.81;75.45;100163.47;1762239;79;21038;-47
2021/05/16 01:30:34;;;;;;;5.05;3.75;;;;;;;11.80;75.57;100154.61;1759490;79;20985;-48
2021/05/16 01:33:01;;;;;;;3.95;3.40;;;;;;;11.72;75.88;100161.41;1761164;79;21009;-43
2021/05/16 01:35:27;;;;;;;6.30;4.65;;;;;;;11.56;76.21;100157.60;1707840;82;21011;-45
2021/05/16 01:37:54;;;;;;;11.15;8.35;;;;;;;11.49;76.64;100162.52;1696082;82;21039;-46
2021/05/16 01:40:21;;;;;;;6.78;5.10;;;;;;;11.49;76.89;100159.85;1705710;82;21075;-43
2021/05/16 01:42:51;;;;;;;7.30;4.12;;;;;;;11.52;77.06;100164.12;1753177;79;20977;-43
2021/05/16 01:45:20;;;;;;;6.80;5.20;;;;;;;11.53;77.09;100166.67;1759453;79;20970;-46
2021/05/16 01:47:47;;;;;;;8.60;6.87;;;;;;;11.56;77.03;100177.62;1761651;79;21561;-51
2021/05/16 01:50:17;;;;;;;8.50;7.42;;;;;;;11.55;76.94;100163.91;1761084;79;21532;-49
2021/05/16 01:52:45;;;;;;;8.20;6.30;;;;;;;11.56;76.90;100160.27;1757724;79;21015;-46
2021/05/16 01:55:16;;;;;;;7.55;5.85;;;;;;;11.56;76.83;100162.94;1734588;80;21001;-45
2021/05/16 01:57:45;;;;;;;10.30;6.00;;;;;;;11.56;76.67;100164.28;1765922;79;21072;-45
2021/05/16 02:00:19;;;;;;;5.12;4.37;;;;;;;11.56;76.53;100162.45;1764656;79;21050;-44
2021/05/16 02:02:47;;;;;;;7.65;5.92;;;;;;;11.55;76.44;100163.91;1752002;79;21085;-45
2021/05/16 02:05:16;;;;;;;5.97;4.83;;;;;;;11.55;76.27;100169.25;1756306;79;21049;-45
2021/05/16 02:07:45;;;;;;;5.67;4.85;;;;;;;11.54;76.12;100172.41;1751405;80;21005;-45
2021/05/16 02:10:12;;;;;;;5.95;4.70;;;;;;;11.53;75.96;100177.36;1762607;79;21002;-44
2021/05/16 02:12:39;;;;;;;6.67;4.42;;;;;;;11.53;75.97;100181.85;1760079;80;21305;-46
2021/05/16 02:15:11;;;;;;;6.20;4.95;;;;;;;11.54;75.95;100183.09;1759685;79;21021;-44
2021/05/16 02:17:41;;;;;;;5.97;4.30;;;;;;;11.54;75.94;100180.88;1754614;79;20978;-44
2021/05/16 02:20:12;;;;;;;6.50;4.65;;;;;;;11.53;75.89;100179.17;1752210;80;21014;-45
2021/05/16 02:22:40;;;;;;;6.65;4.50;;;;;;;11.49;75.82;100179.87;1756385;80;21040;-48
2021/05/16 02:25:08;;;;;;;4.95;3.75;;;;;;;11.38;75.82;100181.91;1760331;79;20986;-44
2021/05/16 02:27:36;;;;;;;6.03;3.85;;;;;;;11.32;76.03;100183.66;1768629;79;21041;-47
2021/05/16 02:30:05;;;;;;;5.50;3.95;;;;;;;11.31;76.20;100184.60;1734778;80;21025;-49
2021/05/16 02:32:32;;;;;;;5.83;4.05;;;;;;;11.34;76.28;100186.20;1761505;79;21065;-48
2021/05/16 02:34:59;;;;;;;4.95;3.98;;;;;;;11.35;76.23;100192.80;1762456;79;21009;-46
2021/05/16 02:37:30;;;;;;;3.98;3.55;;;;;;;11.37;76.27;100195.38;1752003;79;21297;-49
2021/05/16 02:39:58;;;;;;;6.25;4.25;;;;;;;11.36;76.32;100199.83;1762935;79;21041;-45
2021/05/16 02:42:25;;;;;;;4.62;3.87;;;;;;;11.34;76.28;100197.77;1765751;80;21013;-45
2021/05/16 02:44:52;;;;;;;4.28;3.83;;;;;;;11.26;76.62;100192.94;1760166;79;21044;-45
2021/05/16 02:47:19;;;;;;;5.33;4.20;;;;;;;11.21;77.01;100199.06;1763994;79;21488;-45
2021/05/16 02:49:46;;;;;;;5.67;4.10;;;;;;;11.21;77.18;100203.06;1755688;79;21022;-45
2021/05/16 02:52:12;;;;;;;6.08;4.70;;;;;;;11.25;77.33;100211.70;1760580;79;21030;-42
2021/05/16 02:54:39;;;;;;;4.20;3.62;;;;;;;11.28;77.42;100212.84;1759184;79;21033;-43
2021/05/16 02:57:06;;;;;;;4.50;3.50;;;;;;;11.32;77.63;100214.84;1755788;79;21519;-42
2021/05/16 02:59:33;;;;;;;4.33;3.90;;;;;;;11.35;77.76;100214.16;1760863;79;21017;-45
2021/05/16 03:02:01;;;;;;;5.08;3.92;;;;;;;11.38;77.88;100215.28;1758981;79;21033;-57
2021/05/16 03:04:28;;;;;;;5.35;4.37;;;;;;;11.40;77.91;100213.37;1761463;79;21025;-45
2021/05/16 03:06:56;;;;;;;13.75;12.50;;;;;;;11.42;77.92;100214.61;1764804;79;21507;-46
2021/05/16 03:09:24;;;;;;;13.45;12.25;;;;;;;11.44;78.08;100220.69;1736775;79;21081;-49
2021/05/16 03:11:52;;;;;;;11.65;10.65;;;;;;;11.46;78.32;100230.33;1727165;81;21370;-44
2021/05/16 03:14:20;;;;;;;9.13;8.33;;;;;;;11.48;78.54;100231.55;1682237;82;21049;-50
2021/05/16 03:16:46;;;;;;;10.03;9.03;;;;;;;11.53;78.78;100228.58;1761765;79;21011;-47
2021/05/16 03:19:14;;;;;;;9.23;8.35;;;;;;;11.55;78.97;100224.00;1756351;79;20989;-52
2021/05/16 03:21:43;;;;;;;8.38;7.58;;;;;;;11.57;79.17;100222.09;1755076;79;20998;-49
2021/05/16 03:24:11;;;;;;;9.35;7.53;;;;;;;11.56;79.32;100217.20;1744518;79;21050;-44
2021/05/16 03:26:38;;;;;;;8.48;7.67;;;;;;;11.57;79.53;100213.59;1774413;80;21021;-46
2021/05/16 03:29:06;;;;;;;8.13;7.42;;;;;;;11.56;79.79;100212.34;1762354;79;20993;-48
2021/05/16 03:31:34;;;;;;;7.55;6.62;;;;;;;11.57;80.05;100218.08;1762738;79;21017;-47
2021/05/16 03:34:02;;;;;;;8.28;6.60;;;;;;;11.61;80.21;100219.09;1764327;79;21006;-46
2021/05/16 03:36:30;;;;;;;8.18;6.25;;;;;;;11.66;80.39;100223.64;1764424;79;21311;-45
2021/05/16 03:38:57;;;;;;;8.90;6.42;;;;;;;11.72;80.57;100226.41;1767401;79;20994;-46
2021/05/16 03:41:24;;;;;;;6.42;5.67;;;;;;;11.77;80.77;100224.27;1759045;79;21136;-46
2021/05/16 03:43:50;;;;;;;6.97;6.28;;;;;;;11.83;81.01;100221.66;1766819;79;21536;-52
2021/05/16 03:46:17;;;;;;;10.88;9.83;;;;;;;11.89;81.18;100234.17;1752767;79;21009;-52
2021/05/16 03:48:44;;;;;;;8.93;7.97;;;;;;;11.97;81.50;100241.66;1769903;79;20994;-46
2021/05/16 03:51:11;;;;;;;7.53;5.97;;;;;;;12.05;81.64;100237.13;1753757;79;21458;-47
2021/05/16 03:53:38;;;;;;;6.50;3.92;;;;;;;12.10;81.94;100239.86;1759345;79;21017;-48
2021/05/16 03:56:09;;;;;;;5.33;4.08;;;;;;;12.16;82.00;100245.25;1771958;79;21504;-45
2021/05/16 03:58:36;;;;;;;5.87;3.67;;;;;;;12.23;82.04;100247.88;1763061;79;21022;-54
2021/05/16 04:01:03;;;;;;;5.28;3.65;;;;;;;12.30;82.03;100252.34;1759711;79;21009;-47
2021/05/16 04:03:30;;;;;;;6.22;4.03;;;;;;;12.39;82.08;100254.84;1756154;79;21038;-44
2021/05/16 04:05:57;;;;;;;4.22;3.83;;;;;;;12.46;82.13;100261.48;1700665;82;21005;-48
2021/05/16 04:08:24;;;;;;;7.70;4.25;;;;;;;12.51;82.24;100249.98;1724674;81;21030;-48
2021/05/16 04:10:50;;;;;;;4.97;3.95;;;;;;;12.54;82.32;100242.58;1714994;81;21362;-45
2021/05/16 04:13:17;;;;;;;7.22;3.85;;;;;;;12.60;82.33;100245.33;1762354;79;21107;-45
2021/05/16 04:15:44;;;;;;;4.67;3.98;;;;;;;12.65;82.32;100239.17;1766529;79;20973;-48
2021/05/16 04:18:10;;;;;;;5.05;4.30;;;;;;;12.73;82.39;100245.31;1767674;79;20993;-45
2021/05/16 04:20:37;;;;;;;5.08;4.08;;;;;;;12.80;82.44;100243.03;1765603;79;21537;-45
2021/05/16 04:23:04;;;;;;;5.00;4.45;;;;;;;12.87;82.42;100233.12;1768187;79;21001;-46
2021/05/16 04:25:30;;;;;;;4.75;4.22;;;;;;;12.93;82.30;100232.69;1766783;79;21006;-46
2021/05/16 04:27:57;;;;;;;4.78;4.10;;;;;;;12.99;82.35;100226.03;1769657;79;20991;-44
2021/05/16 04:30:23;;;;;;;6.00;4.55;;;;;;;13.07;82.32;100223.65;1762117;79;21034;-42
2021/05/16 04:32:51;;;;;;;5.30;4.80;;;;;;;13.14;82.12;100214.20;1762349;79;21003;-42
2021/05/16 04:35:17;;;;;;;5.78;5.12;;;;;;;13.20;81.86;100215.57;1746738;80;20994;-48
2021/05/16 04:37:44;;;;;;;5.33;4.83;;;;;;;13.27;81.71;100218.70;1766833;79;20998;-45
2021/05/16 04:40:11;;;;;;;5.12;4.62;;;;;;;13.33;81.35;100215.09;1767793;79;21106;-44
2021/05/16 04:42:38;;;;;;;6.45;4.67;;;;;;;13.40;80.99;100214.13;1766307;79;21048;-48
2021/05/16 04:45:06;;;;;;;5.50;5.00;;;;;;;13.47;80.66;100221.23;1762218;79;21645;-47
2021/05/16 04:47:33;;;;;;;5.78;5.10;;;;;;;13.55;80.47;100223.70;1760002;79;21026;-43
2021/05/16 04:50:00;;;;;;;6.20;5.58;;;;;;;13.61;79.98;100220.58;1765718;79;20981;-43
2021/05/16 04:52:26;;;;;;;7.55;5.25;;;;;;;13.67;79.59;100224.61;1766580;79;21321;-44
2021/05/16 04:54:53;;;;;;;6.37;5.62;;;;;;;13.75;79.47;100224.88;1763582;79;20985;-45
2021/05/16 04:57:20;;;;;;;6.62;5.22;;;;;;;13.83;79.18;100214.45;1760236;79;20978;-42
2021/05/16 04:59:49;;;;;;;6.58;5.87;;;;;;;13.90;79.00;100210.80;1741303;80;21069;-46
2021/05/16 05:02:15;;;;;;;5.92;4.62;;;;;;;13.96;78.96;100204.98;1721106;81;21497;-47
2021/05/16 05:04:42;;;;;;;6.78;6.00;;;;;;;14.03;79.17;100202.17;1723639;81;21010;-44
2021/05/16 05:07:08;;;;;;;7.45;5.50;;;;;;;14.11;78.80;100196.71;1728154;81;20990;-49
2021/05/16 05:09:35;;;;;;;6.60;5.78;;;;;;;14.18;78.59;100197.45;1716792;81;21002;-45
2021/05/16 05:12:01;;;;;;;6.47;5.60;;;;;;;14.24;78.50;100196.14;1728047;80;21363;-45
2021/05/16 05:14:32;;;;;;;6.15;5.55;;;;;;;14.31;78.80;100189.80;1723584;80;21497;-46
2021/05/16 05:16:56;;;;;;;5.80;5.22;;;;;;;14.40;79.27;100175.66;1730622;81;21522;-44
2021/05/16 05:19:24;;;;;;;6.40;5.70;;;;;;;14.49;79.16;100177.62;1724052;81;20986;-45
2021/05/16 05:21:52;;;;;;;7.92;6.62;;;;;;;14.56;79.17;100182.03;1719507;81;21474;-44
2021/05/16 05:24:19;;;;;;;7.75;6.87;;;;;;;14.61;79.27;100179.83;1720641;81;20998;-47
2021/05/16 05:26:46;;;;;;;8.73;6.28;;;;;;;14.64;79.08;100176.89;1720059;81;21358;-44
2021/05/16 05:29:13;;;;;;;6.70;5.78;;;;;;;14.70;79.10;100183.13;1713943;81;21057;-46
2021/05/16 05:31:40;;;;;;;6.10;5.47;;;;;;;14.80;79.25;100179.22;1717945;81;20994;-46
2021/05/16 05:34:06;;;;;;;6.92;6.05;;;;;;;14.89;79.30;100179.80;1719129;81;21493;-45
2021/05/16 05:36:33;;;;;;;6.50;5.83;;;;;;;14.97;78.97;100177.83;1723765;80;20966;-48
2021/05/16 05:39:00;;;;;;;7.92;7.08;;;;;;;15.07;78.83;100181.00;1719132;80;21591;-44
2021/05/16 05:41:28;;;;;;;8.20;6.50;;;;;;;15.16;78.57;100187.44;1719442;80;21556;-44
2021/05/16 05:43:55;;;;;;;8.58;7.70;;;;;;;15.25;78.31;100191.22;1725625;81;21018;-43
2021/05/16 05:46:21;;;;;;;9.03;6.42;;;;;;;15.35;78.24;100197.03;1723322;81;21021;-44
2021/05/16 05:48:49;;;;;;;9.70;6.58;;;;;;;15.44;78.07;100192.72;1718266;80;21513;-47
2021/05/16 05:51:16;;;;;;;9.70;6.80;;;;;;;15.52;77.88;100202.36;1724631;81;21453;-44
2021/05/16 05:53:43;;;;;;;10.15;6.70;;;;;;;15.61;77.93;100199.38;1719196;81;20998;-44
2021/05/16 05:56:10;;;;;;;7.30;5.95;;;;;;;15.70;77.92;100197.30;1717980;80;21029;-45
2021/05/16 05:58:36;;;;;;;6.70;6.00;;;;;;;15.79;77.91;100199.19;1729255;80;21010;-44
2021/05/16 06:01:03;;;;;;;7.22;5.53;;;;;;;15.87;77.66;100198.53;1722517;81;21017;-45
2021/05/16 06:03:30;;;;;;;6.67;5.80;;;;;;;15.95;77.76;100195.19;1721470;80;21013;-44
2021/05/16 06:05:57;;;;;;;6.85;5.50;;;;;;;16.04;77.84;100201.14;1724795;81;21006;-45
2021/05/16 06:08:23;;;;;;;7.17;6.47;;;;;;;16.13;77.62;100188.76;1728072;81;20986;-44
2021/05/16 06:10:50;;;;;;;6.87;6.17;;;;;;;16.21;77.24;100198.35;1729573;81;21054;-47
2021/05/16 06:13:17;;;;;;;9.38;7.47;;;;;;;16.28;76.73;100198.65;1729841;81;21002;-43
2021/05/16 06:15:43;;;;;;;7.17;6.47;;;;;;;16.37;76.29;100200.55;1726786;80;20982;-42
2021/05/16 06:18:10;;;;;;;7.03;6.33;;;;;;;16.43;75.97;100195.50;1734264;81;21025;-44
2021/05/16 06:20:37;;;;;;;7.78;6.78;;;;;;;16.53;75.59;100190.64;1726568;81;21005;-49
2021/05/16 06:23:04;;;;;;;6.58;5.92;;;;;;;16.59;74.89;100192.30;1722888;81;21341;-44
2021/05/16 06:25:31;;;;;;;6.37;5.12;;;;;;;16.68;74.54;100195.16;1724771;81;20998;-42
2021/05/16 06:27:58;;;;;;;7.60;6.60;;;;;;;16.74;73.77;100195.48;1730117;81;21036;-41
2021/05/16 06:30:25;;;;;;;6.45;5.15;;;;;;;16.82;73.68;100194.33;1723836;80;20990;-42
2021/05/16 06:32:51;;;;;;;7.53;6.30;;;;;;;16.88;73.13;100192.92;1723837;81;21018;-43
2021/05/16 06:35:19;;;;;;;5.15;4.58;;;;;;;16.96;72.51;100197.63;1725082;81;21069;-49
2021/05/16 06:37:46;;;;;;;3.87;3.47;;;;;;;17.04;71.82;100201.84;1727963;80;21022;-44
2021/05/16 06:40:14;;;;;;;4.55;3.42;;;;;;;17.11;70.36;100208.86;1731159;81;21062;-43
2021/05/16 06:42:44;;;;;;;6.05;3.98;;;;;;;17.17;69.87;100202.44;1722885;80;21058;-44
2021/05/16 06:45:11;;;;;;;6.37;4.80;;;;;;;17.24;69.85;100197.36;1717929;80;21513;-43
2021/05/16 06:47:39;;;;;;;5.20;4.70;;;;;;;17.33;70.45;100195.65;1726817;81;21026;-43
2021/05/16 06:50:08;;;;;;;6.17;4.37;;;;;;;17.42;70.52;100197.02;1727641;81;21520;-46
2021/05/16 06:52:35;;;;;;;4.17;3.25;;;;;;;17.50;70.65;100193.61;1731756;81;21041;-44
2021/05/16 06:55:05;;;;;;;3.55;2.92;;;;;;;17.58;69.64;100195.09;1729114;80;21018;-44
2021/05/16 06:57:31;;;;;;;2.72;2.20;;;;;;;17.66;68.60;100196.58;1716720;80;22030;-47
2021/05/16 06:59:58;;;;;;;2.85;2.42;;;;;;;17.76;67.04;100190.34;1725385;81;21029;-47
2021/05/16 07:02:25;;;;;;;3.77;2.50;;;;;;;17.83;65.82;100186.12;1719033;80;21046;-45
2021/05/16 07:04:52;;;;;;;3.15;2.35;;;;;;;17.90;65.28;100183.20;1713337;82;20982;-44
2021/05/16 07:07:19;;;;;;;3.75;2.27;;;;;;;17.96;64.93;100185.31;1717861;83;21038;-48
2021/05/16 07:09:47;;;;;;;5.15;2.80;;;;;;;18.03;65.04;100193.69;1716891;81;21674;-48
2021/05/16 07:12:13;;;;;;;4.97;2.37;;;;;;;18.08;64.60;100187.36;1717379;81;21002;-45
2021/05/16 07:14:42;;;;;;;3.80;2.45;;;;;;;18.14;64.87;100189.46;1707343;83;21010;-43
2021/05/16 07:17:08;;;;;;;2.65;2.22;;;;;;;18.21;66.18;100192.44;1719929;81;20997;-45
2021/05/16 07:19:35;;;;;;;4.47;2.25;;;;;;;18.28;67.05;100198.45;1709185;83;21077;-46
2021/05/16 07:22:01;;;;;;;3.12;2.08;;;;;;;18.35;65.88;100202.78;1706391;81;21470;-44
2021/05/16 07:24:28;;;;;;;2.80;2.00;;;;;;;18.42;65.17;100199.85;1707944;83;21552;-44
2021/05/16 07:26:54;;;;;;;2.67;2.10;;;;;;;18.48;64.45;100204.64;1713524;81;21014;-45
2021/05/16 07:29:21;;;;;;;2.83;1.95;;;;;;;18.55;64.38;100196.82;1715218;83;20983;-45
2021/05/16 07:31:48;;;;;;;2.10;1.60;;;;;;;18.60;63.01;100186.42;1712703;81;21022;-43
2021/05/16 07:34:14;;;;;;;2.22;1.62;;;;;;;18.67;62.93;100183.95;1718466;81;20958;-47
2021/05/16 07:36:41;;;;;;;3.02;1.25;;;;;;;18.75;63.34;100184.97;1714676;81;21002;-45
2021/05/16 07:39:07;;;;;;;2.27;1.50;;;;;;;18.83;61.98;100177.97;1715753;81;21537;-46
2021/05/16 07:41:34;;;;;;;3.00;1.50;;;;;;;18.89;61.54;100183.60;1715139;83;21082;-53
2021/05/16 07:44:01;;;;;;;2.08;1.62;;;;;;;18.96;59.87;100183.35;1712139;83;20978;-45
2021/05/16 07:46:28;;;;;;;1.95;0.95;;;;;;;19.02;59.75;100184.59;1717173;81;21091;-48
2021/05/16 07:48:56;;;;;;;2.15;0.98;;;;;;;19.09;60.35;100185.69;1719224;81;21506;-45
2021/05/16 07:51:22;;;;;;;2.17;0.98;;;;;;;19.17;59.15;100178.17;1719510;81;20991;-41
2021/05/16 07:53:49;;;;;;;4.17;1.60;;;;;;;19.24;58.42;100179.27;1725222;83;21448;-42
2021/05/16 07:56:16;;;;;;;3.15;1.12;;;;;;;19.32;58.11;100179.34;1719126;81;21003;-42
2021/05/16 07:58:43;;;;;;;2.75;0.90;;;;;;;19.37;56.64;100175.68;1711914;83;20973;-45
2021/05/16 08:01:09;;;;;;;2.98;1.30;;;;;;;19.44;56.18;100177.27;1710118;82;21042;-43
2021/05/16 08:03:36;;;;;;;5.90;1.85;;;;;;;19.51;55.34;100177.01;1718488;81;20991;-45
2021/05/16 08:06:03;;;;;;;12.07;2.40;;;;;;;19.58;56.02;100170.46;1755708;80;20994;-45
2021/05/16 08:08:30;;;;;;;6.62;2.42;;;;;;;19.64;54.78;100165.80;1750380;80;21030;-44
2021/05/16 08:10:56;;;;;;;5.37;1.95;;;;;;;19.71;54.70;100170.97;1747669;80;21013;-44
2021/05/16 08:13:23;;;;;;;6.35;2.50;;;;;;;19.77;55.98;100174.39;1749520;81;20994;-46
2021/05/16 08:15:49;;;;;;;6.25;1.95;;;;;;;19.81;54.43;100173.08;1750699;80;21694;-44
2021/05/16 08:18:16;;;;;;;8.53;2.05;;;;;;;19.87;54.47;100165.67;1751393;81;21023;-44
2021/05/16 08:20:43;;;;;;;4.67;1.85;;;;;;;19.94;53.51;100169.97;1749591;80;21026;-46
2021/05/16 08:23:10;;;;;;;11.45;2.75;;;;;;;20.02;53.38;100169.17;1755227;80;21033;-44
2021/05/16 08:25:38;;;;;;;2.92;1.12;;;;;;;20.09;54.93;100175.66;1752557;81;21022;-45
2021/05/16 08:28:05;;;;;;;5.15;1.30;;;;;;;20.15;53.26;100164.18;1751044;80;21361;-45
2021/05/16 08:30:33;;;;;;;2.98;1.52;;;;;;;20.22;52.37;100165.25;1749027;80;20990;-44
2021/05/16 08:32:59;;;;;;;2.72;0.98;;;;;;;20.29;52.55;100170.88;1752307;80;21046;-46
2021/05/16 08:35:25;;;;;;;2.30;1.22;;;;;;;20.35;52.47;100163.97;1753349;80;21002;-48
2021/05/16 08:37:52;;;;;;;4.42;1.40;;;;;;;20.41;51.50;100164.67;1751262;80;21006;-46
2021/05/16 08:40:19;;;;;;;3.60;1.40;;;;;;;20.46;51.47;100156.43;1749708;80;21078;-45
2021/05/16 08:42:45;;;;;;;2.02;0.85;;;;;;;20.52;52.12;100158.48;1759958;80;21377;-44
2021/05/16 08:45:13;;;;;;;2.98;1.15;;;;;;;20.62;52.97;100161.61;1748452;79;21081;-47
2021/05/16 08:47:43;;;;;;;3.83;1.10;;;;;;;20.66;52.73;100158.42;1752591;80;21018;-47
2021/05/16 08:50:17;;;;;;;3.25;1.17;;;;;;;20.70;52.26;100149.45;1749312;80;21061;-47
2021/05/16 08:52:44;;;;;;;7.95;4.42;;;;;;;20.74;51.48;100152.19;1748823;80;21525;-45
2021/05/16 08:55:12;;;;;;;3.95;2.50;;;;;;;20.78;51.55;100139.99;1754666;80;20974;-46
2021/05/16 08:57:40;;;;;;;2.22;1.40;;;;;;;20.82;51.66;100142.73;1753700;79;21482;-46
2021/05/16 09:00:12;;;;;;;1.47;1.12;;;;;;;20.87;52.51;100143.08;1757927;79;21558;-51
2021/05/16 09:03:10;;;;;;;1.98;1.10;;;;;;;20.92;51.83;100135.81;1757407;80;21023;-47
2021/05/16 09:05:49;;;;;;;2.67;0.98;;;;;;;20.97;51.80;100130.75;1754260;80;20972;-48
2021/05/16 09:08:24;;;;;;;1.92;0.80;;;;;;;21.02;51.60;100134.33;1759479;79;21027;-49
2021/05/16 09:10:57;;;;;;;1.95;1.12;;;;;;;21.07;52.19;100134.16;1763546;79;21062;-47
2021/05/16 09:13:35;;;;;;;3.20;1.60;;;;;;;21.14;53.19;100141.09;1762998;79;21006;-47
2021/05/16 09:16:17;;;;;;;2.62;1.15;;;;;;;21.20;50.74;100132.84;1757614;79;21386;-48
2021/05/16 09:18:55;;;;;;;0.93;0.50;;;;;;;21.25;49.23;100127.25;1759218;79;21511;-47
2021/05/16 09:21:32;;;;;;;0.98;0.68;;;;;;;21.30;49.11;100124.04;1758142;79;21032;-47
2021/05/16 09:24:06;;;;;;;0.88;0.70;;;;;;;21.36;48.90;100126.06;1765664;79;21495;-47
2021/05/16 09:26:35;;;;;;;2.02;0.50;;;;;;;21.42;50.28;100121.38;1761040;79;21811;-47
2021/05/16 09:29:27;;;;;;;2.00;0.80;;;;;;;21.50;50.35;100119.17;1754384;79;21529;-46
2021/05/16 09:31:53;;;;;;;3.70;1.40;;;;;;;21.58;49.38;100118.65;1722315;81;21038;-50
2021/05/16 09:34:20;;;;;;;1.37;0.90;;;;;;;21.67;50.42;100115.92;1721630;81;21034;-48
2021/05/16 09:36:47;;;;;;;2.45;0.80;;;;;;;21.73;48.80;100120.69;1711731;82;21025;-45
2021/05/16 09:39:31;;;;;;;2.15;0.60;;;;;;;21.79;50.19;100115.92;1720613;82;21037;-47
2021/05/16 09:42:08;;;;;;;1.95;0.80;;;;;;;21.87;50.18;100118.62;1717957;81;21052;-45
2021/05/16 09:44:47;;;;;;;0.85;0.57;;;;;;;21.95;49.21;100114.56;1720636;81;21949;-48
2021/05/16 09:47:26;;;;;;;1.12;0.60;;;;;;;22.04;49.15;100115.37;1716586;81;21785;-48
2021/05/16 09:49:59;;;;;;;1.25;0.57;;;;;;;22.13;50.27;100118.42;1718286;81;21034;-47
2021/05/16 09:52:32;;;;;;;0.53;0.40;;;;;;;22.22;50.09;100117.91;1721161;81;20970;-47
2021/05/16 09:55:11;;;;;;;1.80;0.75;;;;;;;22.31;49.52;100114.16;1717364;82;21013;-45
2021/05/16 09:57:42;;;;;;;4.10;1.23;;;;;;;22.39;48.35;100107.85;1716861;81;20998;-46
2021/05/16 10:00:11;;;;;;;2.87;0.80;;;;;;;22.44;48.68;100104.94;1751175;79;21059;-45
2021/05/16 10:02:38;;;;;;;1.87;0.50;;;;;;;22.49;47.67;100107.13;1758635;79;21042;-49
2021/05/16 10:05:07;;;;;;;2.27;0.53;;;;;;;22.53;46.89;100092.67;1761165;79;21097;-51
2021/05/16 10:07:34;;;;;;;1.50;0.70;;;;;;;22.57;47.01;100094.02;1762236;79;21022;-54
2021/05/16 10:10:01;;;;;;;1.32;0.47;;;;;;;22.62;46.24;100095.18;1758537;79;21010;-48
2021/05/16 10:12:28;;;;;;;0.60;0.40;;;;;;;22.67;45.01;100088.70;1763021;79;21318;-43
2021/05/16 10:15:14;;;;;;;1.57;0.60;;;;;;;22.72;45.32;100078.66;1765198;79;21014;-47
2021/05/16 10:17:42;;;;;;;1.85;0.70;;;;;;;22.76;46.04;100075.94;1766311;79;21029;-43
2021/05/16 10:20:14;;;;;;;1.87;0.45;;;;;;;22.80;45.62;100073.17;1760813;79;21013;-43
2021/05/16 10:22:41;;;;;;;0.57;0.40;;;;;;;22.87;45.96;100071.44;1764579;79;20995;-45
2021/05/16 10:25:09;;;;;;;2.62;0.60;;;;;;;22.92;45.27;100083.14;1757670;79;21029;-46
2021/05/16 10:27:46;;;;;;;1.72;0.60;;;;;;;22.97;45.67;100083.96;1748062;80;21536;-45
2021/05/16 10:30:16;;;;;;;0.78;0.50;;;;;;;23.02;45.04;100081.58;1759509;79;21002;-44
2021/05/16 10:32:50;;;;;;;2.17;0.72;;;;;;;23.07;44.35;100084.09;1746369;80;21501;-44
2021/05/16 10:35:17;;;;;;;0.93;0.30;;;;;;;23.12;44.38;100076.75;1760529;79;21412;-44
2021/05/16 10:37:51;;;;;;;1.22;0.55;;;;;;;23.16;44.66;100075.86;1758648;79;21005;-49
2021/05/16 10:40:25;;;;;;;0.40;0.37;;;;;;;23.21;44.72;100069.37;1760368;79;21048;-43
2021/05/16 10:42:58;;;;;;;1.17;0.40;;;;;;;23.27;45.92;100075.45;1745175;79;21061;-43
2021/05/16 10:45:38;;;;;;;0.80;0.50;;;;;;;23.32;45.43;100070.31;1733187;81;20966;-44
2021/05/16 10:48:10;;;;;;;1.25;0.42;;;;;;;23.37;43.27;100072.50;1754988;79;21006;-44
2021/05/16 10:50:51;;;;;;;0.68;0.53;;;;;;;23.40;43.17;100063.44;1748053;79;21025;-45
2021/05/16 10:53:26;;;;;;;0.90;0.47;;;;;;;23.44;44.59;100063.94;1773484;79;21029;-44
2021/05/16 10:56:41;;;;;;;0.30;0.30;;;;;;;23.47;43.16;100053.52;1765447;79;21069;-46
2021/05/16 10:59:43;;;;;;;1.00;0.50;;;;;;;23.50;43.33;100055.03;1581777;89;21736;-47
2021/05/16 11:02:32;;;;;;;0.80;0.30;;;;;;;23.52;43.85;100044.30;1580681;89;21094;-44
2021/05/16 11:04:59;;;;;;;2.77;0.72;;;;;;;23.55;42.80;100034.92;1547590;91;21079;-46
2021/05/16 11:07:33;;;;;;;0.55;0.40;;;;;;;23.58;43.24;100030.46;1544061;91;21084;-43
2021/05/16 11:10:29;;;;;;;0.70;0.57;;;;;;;23.62;42.65;100035.88;1546279;91;21079;-46
2021/05/16 11:13:17;;;;;;;1.07;0.40;;;;;;;23.65;41.92;100030.05;1544329;91;21974;-46
2021/05/16 11:15:52;;;;;;;2.30;0.50;;;;;;;23.70;43.41;100032.22;1546610;91;21086;-46
2021/05/16 11:18:19;;;;;;;2.02;0.45;;;;;;;23.74;42.80;100029.51;1545593;91;21122;-45
2021/05/16 11:20:57;;;;;;;0.60;0.30;;;;;;;23.76;42.58;100024.70;1546300;91;21153;-45
2021/05/16 11:23:27;;;;;;;1.60;0.75;;;;;;;23.78;42.73;100016.36;1544873;91;21580;-47
2021/05/16 11:26:02;;;;;;;0.77;0.60;;;;;;;23.78;42.77;100019.91;1544622;91;21114;-49
2021/05/16 11:28:32;;;;;;;1.10;0.75;;;;;;;23.80;42.15;100019.22;1544055;91;21115;-46
2021/05/16 11:30:59;;;;;;;0.72;0.30;;;;;;;23.82;41.65;100014.44;1545235;91;21046;-46
2021/05/16 11:33:31;;;;;;;4.17;2.10;;;;;;;23.86;41.25;100004.02;1548295;89;21451;-45